sensor_id;sensor_type;location;lat;lon;timestamp;pressure;altitude;pressure_sealevel;temperature;humidity
69306;BME280;56427;51.580;4.656;2023-02-11T00:00:29;103472.63;;;5.40;100.00
69306;BME280;56427;51.580;4.656;2023-02-11T00:02:54;103464.97;;;5.37;100.00
69306;BME280;56427;51.580;4.656;2023-02-11T00:05:20;103463.25;;;5.35;100.00
69306;BME280;56427;51.580;4.656;2023-02-11T00:07:45;103468.44;;;5.34;100.00
69306;BME280;56427;51.580;4.656;2023-02-11T00:10:10;103470.16;;;5.33;100.00
69306;BME280;56427;51.580;4.656;2023-02-11T00:12:36;103460.69;;;5.34;100.00
69306;BME280;56427;51.580;4.656;2023-02-11T00:15:03;103465.00;;;5.35;100.00
69306;BME280;56427;51.580;4.656;2023-02-11T00:17:29;103471.06;;;5.31;100.00
69306;BME280;56427;51.580;4.656;2023-02-11T00:19:54;103468.44;;;5.34;100.00
69306;BME280;56427;51.580;4.656;2023-02-11T00:22:19;103454.75;;;5.32;100.00
69306;BME280;56427;51.580;4.656;2023-02-11T00:24:45;103465.88;;;5.32;100.00
69306;BME280;56427;51.580;4.656;2023-02-11T00:27:10;103457.28;;;5.33;100.00
69306;BME280;56427;51.580;4.656;2023-02-11T00:29:37;103451.28;;;5.34;100.00
69306;BME280;56427;51.580;4.656;2023-02-11T00:32:03;103450.38;;;5.35;100.00
69306;BME280;56427;51.580;4.656;2023-02-11T00:34:32;103443.63;;;5.30;100.00
69306;BME280;56427;51.580;4.656;2023-02-11T00:36:58;103444.47;;;5.30;100.00
69306;BME280;56427;51.580;4.656;2023-02-11T00:39:24;103438.53;;;5.27;100.00
69306;BME280;56427;51.580;4.656;2023-02-11T00:41:50;103436.81;;;5.26;100.00
69306;BME280;56427;51.580;4.656;2023-02-11T00:44:15;103440.28;;;5.26;100.00
69306;BME280;56427;51.580;4.656;2023-02-11T00:46:40;103442.78;;;5.28;100.00
69306;BME280;56427;51.580;4.656;2023-02-11T00:49:06;103441.13;;;5.25;100.00
69306;BME280;56427;51.580;4.656;2023-02-11T00:51:31;103451.44;;;5.25;100.00
69306;BME280;56427;51.580;4.656;2023-02-11T00:53:57;103443.72;;;5.25;100.00
69306;BME280;56427;51.580;4.656;2023-02-11T00:56:23;103437.59;;;5.29;100.00
69306;BME280;56427;51.580;4.656;2023-02-11T00:58:48;103446.19;;;5.30;100.00
69306;BME280;56427;51.580;4.656;2023-02-11T01:01:14;103449.66;;;5.29;100.00
69306;BME280;56427;51.580;4.656;2023-02-11T01:03:39;103443.66;;;5.28;100.00
69306;BME280;56427;51.580;4.656;2023-02-11T01:06:07;103435.91;;;5.30;100.00
69306;BME280;56427;51.580;4.656;2023-02-11T01:08:33;103437.63;;;5.28;100.00
69306;BME280;56427;51.580;4.656;2023-02-11T01:11:04;103427.31;;;5.29;100.00
69306;BME280;56427;51.580;4.656;2023-02-11T01:13:31;103426.50;;;5.27;100.00
69306;BME280;56427;51.580;4.656;2023-02-11T01:15:56;103427.34;;;5.28;100.00
69306;BME280;56427;51.580;4.656;2023-02-11T01:18:23;103434.13;;;5.32;100.00
69306;BME280;56427;51.580;4.656;2023-02-11T01:20:50;103435.97;;;5.25;100.00
69306;BME280;56427;51.580;4.656;2023-02-11T01:23:15;103433.38;;;5.27;100.00
69306;BME280;56427;51.580;4.656;2023-02-11T01:25:41;103434.19;;;5.29;100.00
69306;BME280;56427;51.580;4.656;2023-02-11T01:28:15;103434.31;;;5.23;100.00
69306;BME280;56427;51.580;4.656;2023-02-11T01:30:40;103430.88;;;5.22;100.00
69306;BME280;56427;51.580;4.656;2023-02-11T01:33:05;103440.28;;;5.26;100.00
69306;BME280;56427;51.580;4.656;2023-02-11T01:35:30;103440.19;;;5.29;100.00
69306;BME280;56427;51.580;4.656;2023-02-11T01:37:56;103448.00;;;5.26;100.00
69306;BME280;56427;51.580;4.656;2023-02-11T01:40:21;103440.28;;;5.25;100.00
69306;BME280;56427;51.580;4.656;2023-02-11T01:42:46;103441.13;;;5.25;100.00
69306;BME280;56427;51.580;4.656;2023-02-11T01:46:16;103443.69;;;5.27;100.00
69306;BME280;56427;51.580;4.656;2023-02-11T01:48:41;103443.69;;;5.27;100.00
69306;BME280;56427;51.580;4.656;2023-02-11T01:51:23;103440.28;;;5.26;100.00
69306;BME280;56427;51.580;4.656;2023-02-11T01:53:49;103441.09;;;5.28;100.00
69306;BME280;56427;51.580;4.656;2023-02-11T01:56:41;103414.53;;;5.26;100.00
69306;BME280;56427;51.580;4.656;2023-02-11T01:59:34;103408.47;;;5.27;100.00
69306;BME280;56427;51.580;4.656;2023-02-11T02:02:07;103405.81;;;5.32;100.00
69306;BME280;56427;51.580;4.656;2023-02-11T02:04:40;103424.72;;;5.29;100.00
69306;BME280;56427;51.580;4.656;2023-02-11T02:07:11;103422.13;;;5.31;100.00
69306;BME280;56427;51.580;4.656;2023-02-11T02:09:45;103426.41;;;5.32;100.00
69306;BME280;56427;51.580;4.656;2023-02-11T02:12:13;103426.50;;;5.27;100.00
69306;BME280;56427;51.580;4.656;2023-02-11T02:14:41;103429.88;;;5.29;100.00
69306;BME280;56427;51.580;4.656;2023-02-11T02:17:25;103420.50;;;5.27;100.00
69306;BME280;56427;51.580;4.656;2023-02-11T02:25:19;103423.88;;;5.30;100.00
69306;BME280;56427;51.580;4.656;2023-02-11T02:28:14;103428.22;;;5.27;100.00
69306;BME280;56427;51.580;4.656;2023-02-11T02:36:23;103430.81;;;5.27;100.00
69306;BME280;56427;51.580;4.656;2023-02-11T02:38:56;103430.59;;;5.36;100.00
69306;BME280;56427;51.580;4.656;2023-02-11T02:41:30;103431.50;;;5.35;100.00
69306;BME280;56427;51.580;4.656;2023-02-11T02:43:56;103426.41;;;5.32;100.00
69306;BME280;56427;51.580;4.656;2023-02-11T02:46:28;103420.53;;;5.25;100.00
69306;BME280;56427;51.580;4.656;2023-02-11T02:48:55;103411.97;;;5.25;100.00
69306;BME280;56427;51.580;4.656;2023-02-11T02:51:41;103419.78;;;5.20;100.00
69306;BME280;56427;51.580;4.656;2023-02-11T02:56:54;103438.63;;;5.21;100.00
69306;BME280;56427;51.580;4.656;2023-02-11T02:59:43;103437.72;;;5.25;100.00
69306;BME280;56427;51.580;4.656;2023-02-11T03:02:34;103436.03;;;5.22;100.00
69306;BME280;56427;51.580;4.656;2023-02-11T03:07:55;103419.06;;;5.13;100.00
69306;BME280;56427;51.580;4.656;2023-02-11T03:10:30;103408.94;;;5.03;100.00
69306;BME280;56427;51.580;4.656;2023-02-11T03:12:57;103405.56;;;5.01;100.00
69306;BME280;56427;51.580;4.656;2023-02-11T03:15:25;103416.78;;;4.95;100.00
69306;BME280;56427;51.580;4.656;2023-02-11T03:17:54;103423.66;;;4.96;100.00
69306;BME280;56427;51.580;4.656;2023-02-11T03:20:21;103425.38;;;4.95;100.00
69306;BME280;56427;51.580;4.656;2023-02-11T03:22:53;103427.06;;;4.95;100.00
69306;BME280;56427;51.580;4.656;2023-02-11T03:25:21;103414.19;;;4.96;100.00
69306;BME280;56427;51.580;4.656;2023-02-11T03:30:25;103407.41;;;4.92;100.00
69306;BME280;56427;51.580;4.656;2023-02-11T03:33:09;103398.97;;;4.86;100.00
69306;BME280;56427;51.580;4.656;2023-02-11T03:35:53;103401.59;;;4.83;100.00
69306;BME280;56427;51.580;4.656;2023-02-11T03:38:23;103399.91;;;4.78;100.00
69306;BME280;56427;51.580;4.656;2023-02-11T03:40:50;103401.59;;;4.83;100.00
69306;BME280;56427;51.580;4.656;2023-02-11T03:43:20;103406.69;;;4.84;100.00
69306;BME280;56427;51.580;4.656;2023-02-11T03:45:48;103417.00;;;4.84;100.00
69306;BME280;56427;51.580;4.656;2023-02-11T03:48:19;103412.66;;;4.86;100.00
69306;BME280;56427;51.580;4.656;2023-02-11T03:50:47;103421.16;;;4.90;100.00
69306;BME280;56427;51.580;4.656;2023-02-11T03:53:14;103426.38;;;4.87;100.00
69306;BME280;56427;51.580;4.656;2023-02-11T03:55:42;103414.31;;;4.90;100.00
69306;BME280;56427;51.580;4.656;2023-02-11T03:58:08;103412.59;;;4.91;100.00
69306;BME280;56427;51.580;4.656;2023-02-11T04:00:36;103391.34;;;4.79;100.00
69306;BME280;56427;51.580;4.656;2023-02-11T04:03:04;103400.63;;;4.87;100.00
69306;BME280;56427;51.580;4.656;2023-02-11T04:05:30;103403.28;;;4.84;100.00
69306;BME280;56427;51.580;4.656;2023-02-11T04:07:55;103400.75;;;4.82;100.00
69306;BME280;56427;51.580;4.656;2023-02-11T04:10:20;103411.03;;;4.82;100.00
69306;BME280;56427;51.580;4.656;2023-02-11T04:12:46;103423.00;;;4.83;100.00
69306;BME280;56427;51.580;4.656;2023-02-11T04:15:11;103419.59;;;4.83;100.00
69306;BME280;56427;51.580;4.656;2023-02-11T04:17:37;103414.41;;;4.84;100.00
69306;BME280;56427;51.580;4.656;2023-02-11T04:20:02;103399.84;;;4.83;100.00
69306;BME280;56427;51.580;4.656;2023-02-11T04:22:29;103405.91;;;4.81;100.00
69306;BME280;56427;51.580;4.656;2023-02-11T04:24:54;103401.66;;;4.78;100.00
69306;BME280;56427;51.580;4.656;2023-02-11T04:27:20;103398.28;;;4.76;100.00
69306;BME280;56427;51.580;4.656;2023-02-11T04:29:45;103400.75;;;4.82;100.00
69306;BME280;56427;51.580;4.656;2023-02-11T04:32:10;103397.34;;;4.78;100.00
69306;BME280;56427;51.580;4.656;2023-02-11T04:34:36;103396.47;;;4.81;100.00
69306;BME280;56427;51.580;4.656;2023-02-11T04:37:02;103393.97;;;4.76;100.00
69306;BME280;56427;51.580;4.656;2023-02-11T04:39:27;103393.22;;;4.70;100.00
69306;BME280;56427;51.580;4.656;2023-02-11T04:41:53;103385.69;;;4.60;100.00
69306;BME280;56427;51.580;4.656;2023-02-11T04:44:18;103386.53;;;4.59;100.00
69306;BME280;56427;51.580;4.656;2023-02-11T04:46:43;103391.66;;;4.61;100.00
69306;BME280;56427;51.580;4.656;2023-02-11T04:49:12;103395.09;;;4.60;100.00
69306;BME280;56427;51.580;4.656;2023-02-11T04:51:44;103399.44;;;4.56;100.00
69306;BME280;56427;51.580;4.656;2023-02-11T04:54:09;103397.75;;;4.54;100.00
69306;BME280;56427;51.580;4.656;2023-02-11T04:56:35;103396.88;;;4.56;100.00
69306;BME280;56427;51.580;4.656;2023-02-11T04:59:00;103402.84;;;4.58;100.00
69306;BME280;56427;51.580;4.656;2023-02-11T05:01:26;103393.44;;;4.57;100.00
69306;BME280;56427;51.580;4.656;2023-02-11T05:03:51;103393.47;;;4.56;100.00
69306;BME280;56427;51.580;4.656;2023-02-11T05:06:17;103392.56;;;4.57;100.00
69306;BME280;56427;51.580;4.656;2023-02-11T05:08:42;103392.47;;;4.63;100.00
69306;BME280;56427;51.580;4.656;2023-02-11T05:11:14;103389.09;;;4.61;100.00
69306;BME280;56427;51.580;4.656;2023-02-11T05:13:39;103391.75;;;4.56;100.00
69306;BME280;56427;51.580;4.656;2023-02-11T05:16:05;103398.50;;;4.62;100.00
69306;BME280;56427;51.580;4.656;2023-02-11T05:18:30;103403.75;;;4.56;100.00
69306;BME280;56427;51.580;4.656;2023-02-11T05:20:55;103400.22;;;4.61;100.00
69306;BME280;56427;51.580;4.656;2023-02-11T05:23:21;103397.75;;;4.55;100.00
69306;BME280;56427;51.580;4.656;2023-02-11T05:25:47;103397.75;;;4.55;100.00
69306;BME280;56427;51.580;4.656;2023-02-11T05:28:12;103399.53;;;4.50;100.00
69306;BME280;56427;51.580;4.656;2023-02-11T05:30:37;103398.63;;;4.56;100.00
69306;BME280;56427;51.580;4.656;2023-02-11T05:33:03;103390.19;;;4.48;100.00
69306;BME280;56427;51.580;4.656;2023-02-11T05:35:28;103394.56;;;4.42;100.00
69306;BME280;56427;51.580;4.656;2023-02-11T05:37:54;103404.09;;;4.36;100.00
69306;BME280;56427;51.580;4.656;2023-02-11T05:40:19;103404.16;;;4.30;100.00
69306;BME280;56427;51.580;4.656;2023-02-11T05:42:44;103404.16;;;4.31;100.00
69306;BME280;56427;51.580;4.656;2023-02-11T05:45:10;103406.81;;;4.23;100.00
69306;BME280;56427;51.580;4.656;2023-02-11T05:47:35;103406.75;;;4.30;100.00
69306;BME280;56427;51.580;4.656;2023-02-11T05:50:00;103406.06;;;4.18;100.00
69306;BME280;56427;51.580;4.656;2023-02-11T05:52:25;103398.34;;;4.18;100.00
69306;BME280;56427;51.580;4.656;2023-02-11T05:54:51;103399.25;;;4.13;100.00
69306;BME280;56427;51.580;4.656;2023-02-11T05:57:16;103393.31;;;4.11;100.00
69306;BME280;56427;51.580;4.656;2023-02-11T05:59:42;103408.53;;;4.26;100.00
69306;BME280;56427;51.580;4.656;2023-02-11T06:02:08;103414.59;;;4.20;100.00
69306;BME280;56427;51.580;4.656;2023-02-11T06:04:34;103412.84;;;4.21;100.00
69306;BME280;56427;51.580;4.656;2023-02-11T06:07:00;103410.19;;;4.27;100.00
69306;BME280;56427;51.580;4.656;2023-02-11T06:09:25;103412.78;;;4.26;100.00
69306;BME280;56427;51.580;4.656;2023-02-11T06:11:50;103404.19;;;4.28;100.00
69306;BME280;56427;51.580;4.656;2023-02-11T06:14:16;103399.97;;;4.24;100.00
69306;BME280;56427;51.580;4.656;2023-02-11T06:16:42;103395.69;;;4.24;100.00
69306;BME280;56427;51.580;4.656;2023-02-11T06:19:07;103388.91;;;4.19;100.00
69306;BME280;56427;51.580;4.656;2023-02-11T06:21:32;103397.31;;;4.29;100.00
69306;BME280;56427;51.580;4.656;2023-02-11T06:23:57;103390.53;;;4.26;100.00
69306;BME280;56427;51.580;4.656;2023-02-11T06:26:23;103396.53;;;4.23;100.00
69306;BME280;56427;51.580;4.656;2023-02-11T06:28:48;103392.34;;;4.19;100.00
69306;BME280;56427;51.580;4.656;2023-02-11T06:31:15;103388.97;;;4.13;100.00
69306;BME280;56427;51.580;4.656;2023-02-11T06:33:40;103391.44;;;4.22;100.00
69306;BME280;56427;51.580;4.656;2023-02-11T06:36:15;103400.72;;;4.31;100.00
69306;BME280;56427;51.580;4.656;2023-02-11T06:38:40;103398.22;;;4.28;100.00
69306;BME280;56427;51.580;4.656;2023-02-11T06:41:11;103384.63;;;4.19;100.00
69306;BME280;56427;51.580;4.656;2023-02-11T06:43:37;103399.06;;;4.28;100.00
69306;BME280;56427;51.580;4.656;2023-02-11T06:46:03;103400.72;;;4.29;100.00
69306;BME280;56427;51.580;4.656;2023-02-11T06:48:28;103399.97;;;4.24;100.00
69306;BME280;56427;51.580;4.656;2023-02-11T06:50:54;103405.09;;;4.24;100.00
69306;BME280;56427;51.580;4.656;2023-02-11T06:53:19;103403.44;;;4.21;100.00
69306;BME280;56427;51.580;4.656;2023-02-11T06:55:44;103407.69;;;4.22;100.00
69306;BME280;56427;51.580;4.656;2023-02-11T06:58:09;103420.47;;;4.27;100.00
69306;BME280;56427;51.580;4.656;2023-02-11T07:00:35;103424.81;;;4.23;100.00
69306;BME280;56427;51.580;4.656;2023-02-11T07:03:01;103416.16;;;4.29;100.00
69306;BME280;56427;51.580;4.656;2023-02-11T07:05:26;103422.16;;;4.31;100.00
69306;BME280;56427;51.580;4.656;2023-02-11T07:07:51;103418.63;;;4.37;100.00
69306;BME280;56427;51.580;4.656;2023-02-11T07:10:17;103419.41;;;4.40;100.00
69306;BME280;56427;51.580;4.656;2023-02-11T07:12:42;103419.44;;;4.39;100.00
69306;BME280;56427;51.580;4.656;2023-02-11T07:15:08;103429.63;;;4.45;100.00
69306;BME280;56427;51.580;4.656;2023-02-11T07:17:34;103428.78;;;4.46;100.00
69306;BME280;56427;51.580;4.656;2023-02-11T07:20:00;103431.31;;;4.48;100.00
69306;BME280;56427;51.580;4.656;2023-02-11T07:22:25;103432.94;;;4.53;100.00
69306;BME280;56427;51.580;4.656;2023-02-11T07:24:50;103434.44;;;4.65;100.00
69306;BME280;56427;51.580;4.656;2023-02-11T07:27:16;103441.34;;;4.63;100.00
69306;BME280;56427;51.580;4.656;2023-02-11T07:29:41;103430.06;;;4.70;100.00
69306;BME280;56427;51.580;4.656;2023-02-11T07:32:07;103433.50;;;4.72;100.00
69306;BME280;56427;51.580;4.656;2023-02-11T07:34:32;103437.75;;;4.73;100.00
69306;BME280;56427;51.580;4.656;2023-02-11T07:36:58;103436.00;;;4.77;100.00
69306;BME280;56427;51.580;4.656;2023-02-11T07:39:23;103447.94;;;4.79;100.00
69306;BME280;56427;51.580;4.656;2023-02-11T07:41:52;103452.09;;;4.87;100.00
69306;BME280;56427;51.580;4.656;2023-02-11T07:44:17;103452.81;;;4.95;100.00
69306;BME280;56427;51.580;4.656;2023-02-11T07:46:43;103457.97;;;4.95;100.00
69306;BME280;56427;51.580;4.656;2023-02-11T07:49:10;103456.06;;;5.05;100.00
69306;BME280;56427;51.580;4.656;2023-02-11T07:51:35;103466.31;;;5.09;100.00
69306;BME280;56427;51.580;4.656;2023-02-11T07:54:00;103462.78;;;5.15;100.00
69306;BME280;56427;51.580;4.656;2023-02-11T07:56:27;103467.00;;;5.19;100.00
69306;BME280;56427;51.580;4.656;2023-02-11T07:58:53;103469.56;;;5.19;100.00
69306;BME280;56427;51.580;4.656;2023-02-11T08:01:22;103466.06;;;5.23;100.00
69306;BME280;56427;51.580;4.656;2023-02-11T08:03:49;103468.63;;;5.25;100.00
69306;BME280;56427;51.580;4.656;2023-02-11T08:06:16;103477.88;;;5.33;100.00
69306;BME280;56427;51.580;4.656;2023-02-11T08:08:42;103471.94;;;5.31;100.00
69306;BME280;56427;51.580;4.656;2023-02-11T08:11:17;103476.13;;;5.35;100.00
69306;BME280;56427;51.580;4.656;2023-02-11T08:13:43;103480.34;;;5.40;100.00
69306;BME280;56427;51.580;4.656;2023-02-11T08:16:17;103486.31;;;5.42;100.00
69306;BME280;56427;51.580;4.656;2023-02-11T08:18:43;103481.03;;;5.49;100.00
69306;BME280;56427;51.580;4.656;2023-02-11T08:21:09;103480.94;;;5.52;100.00
69306;BME280;56427;51.580;4.656;2023-02-11T08:23:36;103484.44;;;5.50;100.00
69306;BME280;56427;51.580;4.656;2023-02-11T08:26:03;103492.97;;;5.52;100.00
69306;BME280;56427;51.580;4.656;2023-02-11T08:28:28;103489.34;;;5.62;100.00
69306;BME280;56427;51.580;4.656;2023-02-11T08:30:53;103496.22;;;5.62;100.00
69306;BME280;56427;51.580;4.656;2023-02-11T08:33:19;103503.94;;;5.63;100.00
69306;BME280;56427;51.580;4.656;2023-02-11T08:35:44;103500.44;;;5.67;100.00
69306;BME280;56427;51.580;4.656;2023-02-11T08:38:09;103508.06;;;5.72;100.00
69306;BME280;56427;51.580;4.656;2023-02-11T08:40:35;103508.03;;;5.74;100.00
69306;BME280;56427;51.580;4.656;2023-02-11T08:43:00;103512.22;;;5.79;100.00
69306;BME280;56427;51.580;4.656;2023-02-11T08:45:25;103511.19;;;5.88;100.00
69306;BME280;56427;51.580;4.656;2023-02-11T08:47:51;103506.06;;;5.86;100.00
69306;BME280;56427;51.580;4.656;2023-02-11T08:50:16;103517.19;;;5.87;100.00
69306;BME280;56427;51.580;4.656;2023-02-11T08:52:41;103517.31;;;5.82;100.00
69306;BME280;56427;51.580;4.656;2023-02-11T08:55:07;103518.13;;;5.84;100.00
69306;BME280;56427;51.580;4.656;2023-02-11T08:57:33;103514.78;;;5.81;100.00
69306;BME280;56427;51.580;4.656;2023-02-11T08:59:58;103512.16;;;5.82;100.00
69306;BME280;56427;51.580;4.656;2023-02-11T09:02:23;103517.22;;;5.85;100.00
69306;BME280;56427;51.580;4.656;2023-02-11T09:04:49;103514.53;;;5.92;100.00
69306;BME280;56427;51.580;4.656;2023-02-11T09:07:14;103516.25;;;5.93;100.00
69306;BME280;56427;51.580;4.656;2023-02-11T09:09:39;103513.63;;;5.97;100.00
69306;BME280;56427;51.580;4.656;2023-02-11T09:12:05;103517.78;;;6.03;100.00
69306;BME280;56427;51.580;4.656;2023-02-11T09:14:30;103515.31;;;5.95;100.00
69306;BME280;56427;51.580;4.656;2023-02-11T09:16:56;103513.59;;;5.99;100.00
69306;BME280;56427;51.580;4.656;2023-02-11T09:19:22;103516.13;;;6.00;100.00
69306;BME280;56427;51.580;4.656;2023-02-11T09:21:47;103512.66;;;6.01;100.00
69306;BME280;56427;51.580;4.656;2023-02-11T09:24:13;103517.69;;;6.07;100.00
69306;BME280;56427;51.580;4.656;2023-02-11T09:26:40;103517.41;;;6.20;100.00
69306;BME280;56427;51.580;4.656;2023-02-11T09:29:06;103522.50;;;6.23;100.00
69306;BME280;56427;51.580;4.656;2023-02-11T09:31:32;103513.88;;;6.25;100.00
69306;BME280;56427;51.580;4.656;2023-02-11T09:34:00;103517.28;;;6.26;100.00
69306;BME280;56427;51.580;4.656;2023-02-11T09:36:28;103525.69;;;6.34;100.00
69306;BME280;56427;51.580;4.656;2023-02-11T09:38:58;103533.41;;;6.36;100.00
69306;BME280;56427;51.580;4.656;2023-02-11T09:43:55;103535.78;;;6.45;100.00
69306;BME280;56427;51.580;4.656;2023-02-11T09:46:22;103531.44;;;6.47;100.00
69306;BME280;56427;51.580;4.656;2023-02-11T09:48:52;103530.44;;;6.53;100.00
69306;BME280;56427;51.580;4.656;2023-02-11T09:53:50;103522.44;;;6.65;100.00
69306;BME280;56427;51.580;4.656;2023-02-11T09:56:17;103526.63;;;6.69;100.00
69306;BME280;56427;51.580;4.656;2023-02-11T09:58:43;103534.78;;;6.88;100.00
69306;BME280;56427;51.580;4.656;2023-02-11T10:01:29;103545.31;;;6.79;100.00
69306;BME280;56427;51.580;4.656;2023-02-11T10:04:13;103547.06;;;6.78;100.00
69306;BME280;56427;51.580;4.656;2023-02-11T10:06:48;103539.25;;;6.81;100.00
69306;BME280;56427;51.580;4.656;2023-02-11T10:09:39;103544.13;;;6.92;100.00
69306;BME280;56427;51.580;4.656;2023-02-11T10:20:07;103550.84;;;7.01;100.00
69306;BME280;56427;51.580;4.656;2023-02-11T10:22:49;103549.84;;;7.05;100.00
69306;BME280;56427;51.580;4.656;2023-02-11T10:27:54;103552.94;;;7.19;100.00
69306;BME280;56427;51.580;4.656;2023-02-11T10:30:27;103552.13;;;7.19;100.00
69306;BME280;56427;51.580;4.656;2023-02-11T10:33:19;103554.00;;;7.12;100.00
69306;BME280;56427;51.580;4.656;2023-02-11T10:35:47;103549.75;;;7.10;100.00
69306;BME280;56427;51.580;4.656;2023-02-11T10:38:12;103562.41;;;7.21;100.00
69306;BME280;56427;51.580;4.656;2023-02-11T10:40:38;103566.44;;;7.31;100.00
69306;BME280;56427;51.580;4.656;2023-02-11T10:43:09;103572.22;;;7.41;100.00
69306;BME280;56427;51.580;4.656;2023-02-11T10:45:39;103564.47;;;7.41;100.00
69306;BME280;56427;51.580;4.656;2023-02-11T10:48:39;103562.00;;;7.36;100.00
69306;BME280;56427;51.580;4.656;2023-02-11T10:51:15;103565.16;;;7.47;100.00
69306;BME280;56427;51.580;4.656;2023-02-11T10:53:41;103564.47;;;7.41;100.00
69306;BME280;56427;51.580;4.656;2023-02-11T10:56:07;103575.66;;;7.41;100.00
69306;BME280;56427;51.580;4.656;2023-02-11T10:58:45;103578.75;;;7.54;100.00
69306;BME280;56427;51.580;4.656;2023-02-11T11:01:18;103596.97;;;7.49;100.00
69306;BME280;56427;51.580;4.656;2023-02-11T11:03:48;103601.16;;;7.55;100.00
69306;BME280;56427;51.580;4.656;2023-02-11T11:06:14;103587.28;;;7.58;100.00
69306;BME280;56427;51.580;4.656;2023-02-11T11:08:48;103581.19;;;7.60;100.00
69306;BME280;56427;51.580;4.656;2023-02-11T11:13:41;103588.56;;;7.74;100.00
69306;BME280;56427;51.580;4.656;2023-02-11T11:16:27;103581.88;;;7.67;100.00
69306;BME280;56427;51.580;4.656;2023-02-11T11:26:53;103587.66;;;7.77;100.00
69306;BME280;56427;51.580;4.656;2023-02-11T11:29:25;103592.81;;;7.77;100.00
69306;BME280;56427;51.580;4.656;2023-02-11T11:34:37;103575.41;;;7.83;100.00
69306;BME280;56427;51.580;4.656;2023-02-11T11:37:25;103594.00;;;7.96;100.00
69306;BME280;56427;51.580;4.656;2023-02-11T11:42:33;103585.34;;;7.97;100.00
69306;BME280;56427;51.580;4.656;2023-02-11T11:45:23;103595.31;;;8.11;100.00
69306;BME280;56427;51.580;4.656;2023-02-11T11:47:58;103595.31;;;8.11;100.00
69306;BME280;56427;51.580;4.656;2023-02-11T11:53:35;103594.69;;;8.03;100.00
69306;BME280;56427;51.580;4.656;2023-02-11T11:56:26;103587.00;;;8.00;100.00
69306;BME280;56427;51.580;4.656;2023-02-11T11:58:52;103589.28;;;8.10;100.00
69306;BME280;56427;51.580;4.656;2023-02-11T12:12:47;103598.28;;;7.97;100.00
69306;BME280;56427;51.580;4.656;2023-02-11T12:15:37;103598.06;;;8.05;100.00
69306;BME280;56427;51.580;4.656;2023-02-11T12:18:20;103608.22;;;8.13;100.00
69306;BME280;56427;51.580;4.656;2023-02-11T12:26:38;103603.84;;;8.15;100.00
69306;BME280;56427;51.580;4.656;2023-02-11T12:31:43;103605.19;;;8.28;100.00
69306;BME280;56427;51.580;4.656;2023-02-11T12:34:26;103595.34;;;8.39;100.00
69306;BME280;56427;51.580;4.656;2023-02-11T12:39:49;103603.22;;;8.36;100.00
69306;BME280;56427;51.580;4.656;2023-02-11T12:48:06;103603.25;;;8.35;100.00
69306;BME280;56427;51.580;4.656;2023-02-11T12:56:34;103594.25;;;8.48;100.00
69306;BME280;56427;51.580;4.656;2023-02-11T12:59:04;103594.56;;;8.37;100.00
69306;BME280;56427;51.580;4.656;2023-02-11T13:01:34;103582.13;;;8.50;100.00
69306;BME280;56427;51.580;4.656;2023-02-11T13:04:15;103585.88;;;8.68;100.00
69306;BME280;56427;51.580;4.656;2023-02-11T13:06:46;103568.94;;;8.58;100.00
69306;BME280;56427;51.580;4.656;2023-02-11T13:09:23;103567.97;;;8.62;100.00
69306;BME280;56427;51.580;4.656;2023-02-11T13:11:54;103570.34;;;8.68;100.00
69306;BME280;56427;51.580;4.656;2023-02-11T13:14:29;103575.56;;;8.66;100.00
69306;BME280;56427;51.580;4.656;2023-02-11T13:16:56;103570.06;;;8.77;100.00
69306;BME280;56427;51.580;4.656;2023-02-11T13:19:31;103572.16;;;8.66;100.00
69306;BME280;56427;51.580;4.656;2023-02-11T13:22:04;103577.75;;;8.80;100.00
69306;BME280;56427;51.580;4.656;2023-02-11T13:27:23;103565.47;;;8.59;100.00
69306;BME280;56427;51.580;4.656;2023-02-11T13:30:20;103556.56;;;8.68;100.00
69306;BME280;56427;51.580;4.656;2023-02-11T13:37:56;103545.56;;;8.61;100.00
69306;BME280;56427;51.580;4.656;2023-02-11T13:40:37;103546.06;;;8.72;100.00
69306;BME280;56427;51.580;4.656;2023-02-11T13:43:06;103548.00;;;8.65;100.00
69306;BME280;56427;51.580;4.656;2023-02-11T13:45:45;103560.00;;;8.68;100.00
69306;BME280;56427;51.580;4.656;2023-02-11T13:48:26;103559.25;;;8.64;100.00
69306;BME280;56427;51.580;4.656;2023-02-11T13:51:00;103556.28;;;8.77;100.00
69306;BME280;56427;51.580;4.656;2023-02-11T13:53:27;103550.31;;;8.73;100.00
69306;BME280;56427;51.580;4.656;2023-02-11T13:56:06;103551.09;;;8.77;100.00
69306;BME280;56427;51.580;4.656;2023-02-11T13:58:35;103546.75;;;8.77;100.00
69306;BME280;56427;51.580;4.656;2023-02-11T14:01:03;103549.25;;;8.80;100.00
69306;BME280;56427;51.580;4.656;2023-02-11T14:03:32;103554.25;;;8.87;100.00
69306;BME280;56427;51.580;4.656;2023-02-11T14:06:22;103555.63;;;8.70;100.00
69306;BME280;56427;51.580;4.656;2023-02-11T14:19:40;103561.50;;;8.75;100.00
69306;BME280;56427;51.580;4.656;2023-02-11T14:24:59;103566.59;;;8.78;100.00
69306;BME280;56427;51.580;4.656;2023-02-11T14:27:56;103563.59;;;8.64;100.00
69306;BME280;56427;51.580;4.656;2023-02-11T14:30:38;103564.31;;;8.68;100.00
69306;BME280;56427;51.580;4.656;2023-02-11T14:41:26;103567.63;;;8.73;100.00
69306;BME280;56427;51.580;4.656;2023-02-11T14:43:59;103574.03;;;8.61;100.00
69306;BME280;56427;51.580;4.656;2023-02-11T14:46:27;103565.94;;;8.72;100.00
69306;BME280;56427;51.580;4.656;2023-02-11T14:48:57;103565.16;;;8.68;100.00
69306;BME280;56427;51.580;4.656;2023-02-11T14:51:27;103561.66;;;8.71;100.00
69306;BME280;56427;51.580;4.656;2023-02-11T14:53:58;103564.97;;;8.74;100.00
69306;BME280;56427;51.580;4.656;2023-02-11T14:56:28;103555.31;;;8.79;100.00
69306;BME280;56427;51.580;4.656;2023-02-11T14:58:58;103566.38;;;8.84;100.00